Time;durP1;ratioP1;P1;durP2;ratioP2;P2;SDS_P1;SDS_P2;PMS_P1;PMS_P2;Temp;Humidity;BMP_temperature;BMP_pressure;BME280_temperature;BME280_humidity;BME280_pressure;Samples;Min_cycle;Max_cycle;Signal;HPM_P1;HPM_P2
2022/01/15 00:01:29;;;;;;;21.42;7.25;;;;;;;4.83;100.00;102976.28;6353590;28;20514;-81
2022/01/15 00:04:31;;;;;;;13.25;5.45;;;;;;;4.82;100.00;102960.66;6353390;28;20410;-81
2022/01/15 00:07:32;;;;;;;18.40;6.72;;;;;;;4.85;100.00;102950.25;6353742;28;20043;-80
2022/01/15 00:10:34;;;;;;;16.70;6.07;;;;;;;4.84;100.00;102951.97;6348430;28;20521;-80
2022/01/15 00:13:38;;;;;;;20.23;6.22;;;;;;;4.83;100.00;102945.03;6346770;28;20056;-80
2022/01/15 00:16:49;;;;;;;12.93;5.15;;;;;;;4.83;100.00;102945.03;6353983;28;20063;-80
2022/01/15 00:19:50;;;;;;;16.88;5.40;;;;;;;4.81;100.00;102949.38;6353531;28;20410;-80
2022/01/15 00:22:54;;;;;;;14.85;4.57;;;;;;;4.78;100.00;102949.34;6353479;28;20075;-81
2022/01/15 00:25:55;;;;;;;17.23;7.90;;;;;;;4.78;100.00;102949.34;6350975;28;20043;-81
2022/01/15 00:28:57;;;;;;;15.38;6.28;;;;;;;4.80;100.00;102939.81;6334406;27;20052;-81
2022/01/15 00:32:00;;;;;;;13.95;5.47;;;;;;;4.82;100.00;102939.84;6331599;28;20043;-81
2022/01/15 00:35:02;;;;;;;13.95;4.97;;;;;;;4.83;100.00;102937.22;6352603;28;20044;-81
2022/01/15 00:38:03;;;;;;;12.52;5.60;;;;;;;4.84;100.00;102940.69;6352690;28;20047;-81
2022/01/15 00:41:05;;;;;;;11.52;5.38;;;;;;;4.80;100.00;102936.31;6352713;28;20043;-81
2022/01/15 00:44:06;;;;;;;19.33;6.70;;;;;;;4.77;100.00;102931.13;6352754;27;20054;-81
2022/01/15 00:47:09;;;;;;;17.05;5.38;;;;;;;4.75;100.00;102930.22;6352580;28;20499;-79
2022/01/15 00:50:11;;;;;;;16.35;6.50;;;;;;;4.73;100.00;102930.22;6351676;28;20048;-81
2022/01/15 00:53:12;;;;;;;16.20;4.53;;;;;;;4.76;100.00;102938.03;6352634;28;20054;-81
2022/01/15 00:56:14;;;;;;;23.38;6.40;;;;;;;4.79;100.00;102938.06;6351635;28;20388;-82
2022/01/15 00:59:18;;;;;;;17.92;5.55;;;;;;;4.82;100.00;102935.50;6352583;28;20048;-81
2022/01/15 01:02:21;;;;;;;15.95;6.95;;;;;;;4.79;100.00;102938.06;6352234;28;20043;-81
2022/01/15 01:05:23;;;;;;;17.40;5.72;;;;;;;4.76;100.00;102932.81;6351989;28;20043;-81
2022/01/15 01:08:25;;;;;;;12.75;5.63;;;;;;;4.77;100.00;102929.38;6351951;28;20054;-80
2022/01/15 01:11:41;;;;;;;17.05;4.82;;;;;;;4.76;100.00;102926.75;6350842;28;20067;-81
2022/01/15 01:21:57;;;;;;;9.18;4.15;;;;;;;4.74;100.00;102918.06;6334250;28;20629;-81
2022/01/15 01:24:52;;;;;;;16.40;5.45;;;;;;;4.77;100.00;102912.88;6338970;28;20405;-81
2022/01/15 01:27:57;;;;;;;10.32;4.15;;;;;;;4.81;100.00;102918.13;6336311;27;20063;-82
2022/01/15 01:31:03;;;;;;;17.15;4.65;;;;;;;4.79;100.00;102917.22;6326355;28;20044;-79
2022/01/15 01:34:09;;;;;;;12.30;4.80;;;;;;;4.80;100.00;102918.09;6326120;28;20403;-81
2022/01/15 01:37:15;;;;;;;14.95;4.78;;;;;;;4.80;100.00;102905.06;6326089;28;20044;-80
2022/01/15 01:40:24;;;;;;;13.75;4.85;;;;;;;4.81;100.00;102910.31;6341403;28;20052;-81
2022/01/15 01:43:44;;;;;;;11.75;5.18;;;;;;;4.81;100.00;102907.69;6351452;28;20271;-81
2022/01/15 01:46:50;;;;;;;12.75;4.57;;;;;;;4.79;100.00;102898.13;6350751;28;20048;-81
2022/01/15 01:49:53;;;;;;;9.90;3.72;;;;;;;4.75;100.00;102896.38;6350569;28;20131;-79
2022/01/15 01:52:56;;;;;;;17.88;4.32;;;;;;;4.73;100.00;102895.50;6350684;28;20055;-81
2022/01/15 01:55:58;;;;;;;16.13;3.95;;;;;;;4.74;100.00;102899.84;6351461;28;20478;-81
2022/01/15 01:59:00;;;;;;;13.30;4.63;;;;;;;4.74;100.00;102898.09;6349255;28;20490;-81
2022/01/15 02:02:03;;;;;;;13.45;3.90;;;;;;;4.73;100.00;102887.69;6350342;28;20051;-82
2022/01/15 02:05:07;;;;;;;8.35;3.55;;;;;;;4.71;100.00;102889.41;6341364;28;20047;-82
2022/01/15 02:08:08;;;;;;;12.48;3.80;;;;;;;4.72;100.00;102893.72;6350397;28;20048;-81
2022/01/15 02:11:10;;;;;;;21.25;5.97;;;;;;;4.73;100.00;102891.16;6350440;28;20059;-80
2022/01/15 02:14:24;;;;;;;14.25;4.90;;;;;;;4.72;100.00;102881.56;6350074;28;20066;-80
2022/01/15 02:17:26;;;;;;;13.80;4.60;;;;;;;4.70;100.00;102870.28;6349711;28;20058;-80
2022/01/15 02:20:59;;;;;;;14.10;4.40;;;;;;;4.70;100.00;102875.50;6349966;28;20055;-81
2022/01/15 02:23:57;;;;;;;10.02;3.75;;;;;;;4.67;100.00;102870.25;6350166;28;20040;-81
2022/01/15 02:26:58;;;;;;;16.25;4.35;;;;;;;4.64;100.00;102870.28;6348781;28;20062;-80
2022/01/15 02:30:03;;;;;;;9.52;3.47;;;;;;;4.61;100.00;102857.22;6351513;28;20418;-81
2022/01/15 02:33:05;;;;;;;7.78;3.35;;;;;;;4.57;100.00;102858.06;6350890;28;20051;-80
2022/01/15 02:36:10;;;;;;;9.50;3.03;;;;;;;4.58;100.00;102868.47;6352412;28;20517;-81
2022/01/15 02:39:11;;;;;;;13.82;4.70;;;;;;;4.59;100.00;102861.56;6349813;28;20525;-80
2022/01/15 02:42:13;;;;;;;12.68;3.78;;;;;;;4.56;100.00;102854.59;6350450;28;20048;-81
2022/01/15 02:45:21;;;;;;;12.45;4.15;;;;;;;4.57;100.00;102848.53;6350546;28;20050;-81
2022/01/15 02:48:25;;;;;;;16.47;4.80;;;;;;;4.60;100.00;102846.81;6350485;28;20052;-81
2022/01/15 02:51:31;;;;;;;8.88;3.45;;;;;;;4.61;100.00;102854.63;6350461;28;20288;-80
2022/01/15 02:54:32;;;;;;;16.63;6.60;;;;;;;4.62;100.00;102842.47;6349679;28;20430;-80
2022/01/15 02:57:33;;;;;;;19.17;5.82;;;;;;;4.65;100.00;102832.09;6347933;28;20052;-82
2022/01/15 03:00:35;;;;;;;22.23;5.30;;;;;;;4.63;100.00;102836.38;6349749;28;20051;-81
2022/01/15 03:03:37;;;;;;;14.98;6.00;;;;;;;4.57;100.00;102829.44;6349814;28;20051;-81
2022/01/15 03:06:39;;;;;;;25.90;5.32;;;;;;;4.57;100.00;102832.03;6349568;28;20051;-81
2022/01/15 03:09:41;;;;;;;16.80;4.57;;;;;;;4.54;100.00;102829.41;6349070;28;20056;-81
2022/01/15 03:12:42;;;;;;;20.95;5.63;;;;;;;4.53;100.00;102827.66;6348930;28;20054;-81
2022/01/15 03:15:44;;;;;;;19.63;5.70;;;;;;;4.49;100.00;102824.16;6330944;28;20054;-80
2022/01/15 03:18:46;;;;;;;14.68;4.75;;;;;;;4.49;100.00;102831.13;6328788;28;20048;-80
2022/01/15 03:21:48;;;;;;;17.58;4.68;;;;;;;4.51;100.00;102811.19;6336061;28;20047;-81
2022/01/15 03:24:50;;;;;;;15.85;4.80;;;;;;;4.53;100.00;102802.50;6345720;28;20503;-80
2022/01/15 03:27:51;;;;;;;13.20;4.22;;;;;;;4.55;100.00;102799.91;6341252;28;20044;-81
2022/01/15 03:30:53;;;;;;;11.73;4.65;;;;;;;4.59;100.00;102809.50;6349144;28;20510;-81
2022/01/15 03:33:54;;;;;;;17.00;4.88;;;;;;;4.59;100.00;102806.88;6349446;28;20047;-81
2022/01/15 03:36:57;;;;;;;19.70;4.72;;;;;;;4.55;100.00;102805.13;6337973;28;20479;-80
2022/01/15 03:39:58;;;;;;;17.13;5.00;;;;;;;4.54;100.00;102803.38;6344719;28;20047;-79
2022/01/15 03:43:00;;;;;;;19.42;4.80;;;;;;;4.55;100.00;102800.78;6348934;28;20505;-81
2022/01/15 03:46:02;;;;;;;16.02;5.03;;;;;;;4.57;100.00;102804.25;6349451;28;20406;-80
2022/01/15 03:49:03;;;;;;;11.13;3.55;;;;;;;4.57;100.00;102806.84;6353914;28;20494;-81
2022/01/15 03:52:07;;;;;;;12.10;4.75;;;;;;;4.50;100.00;102789.50;6366462;27;20043;-80
2022/01/15 03:55:10;;;;;;;17.55;4.53;;;;;;;4.53;100.00;102805.09;6375656;28;20413;-81
2022/01/15 03:58:12;;;;;;;13.68;4.68;;;;;;;4.57;100.00;102804.25;6353708;28;20040;-80
2022/01/15 04:01:13;;;;;;;11.98;4.63;;;;;;;4.57;100.00;102791.25;6348456;28;20075;-81
2022/01/15 04:04:14;;;;;;;11.55;4.70;;;;;;;4.59;100.00;102799.06;6339221;28;20414;-81
2022/01/15 04:07:17;;;;;;;15.10;4.55;;;;;;;4.54;100.00;102801.66;6323580;28;20048;-81
2022/01/15 04:10:19;;;;;;;17.58;6.05;;;;;;;4.51;100.00;102787.75;6322212;28;20052;-79
2022/01/15 04:13:20;;;;;;;17.20;5.63;;;;;;;4.53;100.00;102796.41;6322805;28;20048;-80
2022/01/15 04:16:22;;;;;;;18.15;5.38;;;;;;;4.53;100.00;102802.50;6322616;28;20411;-80
2022/01/15 04:19:24;;;;;;;10.25;3.70;;;;;;;4.54;100.00;102804.25;6322684;28;20051;-80
2022/01/15 04:22:27;;;;;;;18.98;4.97;;;;;;;4.56;100.00;102793.84;6323063;28;20137;-81
2022/01/15 04:25:28;;;;;;;14.60;5.00;;;;;;;4.57;100.00;102795.56;6323122;28;20044;-81
2022/01/15 04:28:32;;;;;;;15.80;5.47;;;;;;;4.52;100.00;102792.94;6346629;28;20047;-79
2022/01/15 04:31:46;;;;;;;12.15;3.65;;;;;;;4.48;100.00;102788.59;6352741;28;20500;-81
2022/01/15 04:34:48;;;;;;;11.23;3.35;;;;;;;4.47;100.00;102793.81;6352905;28;20048;-80
2022/01/15 04:37:54;;;;;;;10.38;3.22;;;;;;;4.46;100.00;102800.75;6352821;28;20048;-80
2022/01/15 04:40:56;;;;;;;13.55;3.78;;;;;;;4.45;100.00;102798.13;6353198;28;20043;-80
2022/01/15 04:43:57;;;;;;;11.18;2.92;;;;;;;4.43;100.00;102798.13;6352884;28;20092;-80
2022/01/15 04:46:59;;;;;;;11.38;4.18;;;;;;;4.43;100.00;102805.06;6353502;28;20047;-80
2022/01/15 04:50:00;;;;;;;9.15;3.30;;;;;;;4.45;100.00;102799.00;6352374;28;20058;-80
2022/01/15 04:53:04;;;;;;;11.43;3.83;;;;;;;4.43;100.00;102799.84;6352879;28;20546;-80
2022/01/15 04:56:05;;;;;;;12.32;4.05;;;;;;;4.45;100.00;102799.00;6352033;28;20050;-80
2022/01/15 04:59:06;;;;;;;13.52;4.50;;;;;;;4.44;100.00;102797.25;6329734;28;20407;-80
2022/01/15 05:02:08;;;;;;;7.18;2.42;;;;;;;4.43;100.00;102792.91;6326857;28;20051;-80
2022/01/15 05:05:10;;;;;;;8.45;2.85;;;;;;;4.41;100.00;102797.25;6326491;28;20044;-79
2022/01/15 05:08:13;;;;;;;8.98;3.35;;;;;;;4.37;100.00;102798.09;6326931;28;20060;-80
2022/01/15 05:11:26;;;;;;;7.45;3.55;;;;;;;4.40;100.00;102805.91;6336444;28;20513;-80
2022/01/15 05:14:27;;;;;;;7.80;3.22;;;;;;;4.41;100.00;102796.38;6336615;28;20044;-80
2022/01/15 05:17:28;;;;;;;6.50;3.28;;;;;;;4.42;100.00;102805.94;6335766;28;20052;-80
2022/01/15 05:20:31;;;;;;;8.88;3.20;;;;;;;4.42;100.00;102798.13;6334053;28;20047;-80
2022/01/15 05:23:33;;;;;;;12.77;3.75;;;;;;;4.36;100.00;102803.28;6339768;28;20052;-80
2022/01/15 05:26:35;;;;;;;9.13;4.07;;;;;;;4.36;100.00;102796.38;6337227;28;20047;-80
2022/01/15 05:29:37;;;;;;;9.23;2.92;;;;;;;4.38;100.00;102792.03;6337858;28;20394;-80
2022/01/15 05:32:39;;;;;;;12.35;3.92;;;;;;;4.39;100.00;102788.53;6342968;27;20048;-80
2022/01/15 05:35:40;;;;;;;5.95;2.45;;;;;;;4.38;100.00;102784.22;6361942;27;20380;-80
2022/01/15 05:38:43;;;;;;;11.30;3.35;;;;;;;4.35;100.00;102776.38;6348784;27;20078;-80
2022/01/15 05:41:44;;;;;;;10.52;3.08;;;;;;;4.33;100.00;102770.31;6366071;27;20054;-80
2022/01/15 05:44:46;;;;;;;9.00;3.10;;;;;;;4.30;100.00;102780.69;6331206;28;20047;-80
2022/01/15 05:47:47;;;;;;;7.47;3.22;;;;;;;4.25;100.00;102778.06;6326400;28;20056;-81
2022/01/15 05:50:49;;;;;;;13.55;4.32;;;;;;;4.24;100.00;102778.06;6333655;27;20051;-80
2022/01/15 05:53:51;;;;;;;8.95;3.80;;;;;;;4.24;100.00;102772.88;6353396;27;20055;-80
2022/01/15 05:56:53;;;;;;;10.90;3.47;;;;;;;4.25;100.00;102775.47;6334510;28;20051;-79
2022/01/15 05:59:54;;;;;;;15.70;4.57;;;;;;;4.30;100.00;102775.47;6346130;28;20051;-79
2022/01/15 06:02:55;;;;;;;15.25;5.85;;;;;;;4.35;100.00;102770.31;6351003;28;20391;-79
2022/01/15 06:05:57;;;;;;;15.27;5.45;;;;;;;4.35;100.00;102772.91;6350776;28;20456;-80
2022/01/15 06:08:59;;;;;;;20.67;6.57;;;;;;;4.30;100.00;102775.47;6350679;28;20430;-79
2022/01/15 06:12:01;;;;;;;20.58;5.90;;;;;;;4.35;100.00;102778.13;6340527;28;20055;-80
2022/01/15 06:15:02;;;;;;;15.52;5.45;;;;;;;4.38;100.00;102768.59;6364715;27;20075;-80
2022/01/15 06:18:04;;;;;;;12.95;4.72;;;;;;;4.43;100.00;102768.63;6350659;28;20048;-80
2022/01/15 06:21:05;;;;;;;16.17;5.35;;;;;;;4.42;100.00;102775.56;6349478;28;20055;-80
2022/01/15 06:24:08;;;;;;;26.45;6.45;;;;;;;4.39;100.00;102782.47;6350027;28;20441;-80
2022/01/15 06:27:11;;;;;;;17.02;5.60;;;;;;;4.38;100.00;102778.13;6349891;28;20050;-79
2022/01/15 06:30:13;;;;;;;16.02;5.22;;;;;;;4.41;100.00;102776.44;6342372;28;20134;-79
2022/01/15 06:33:14;;;;;;;18.95;6.78;;;;;;;4.38;100.00;102773.78;6324608;28;20048;-79
2022/01/15 06:36:16;;;;;;;18.08;6.38;;;;;;;4.35;100.00;102771.16;6324600;28;20040;-80
2022/01/15 06:39:18;;;;;;;22.23;6.10;;;;;;;4.31;100.00;102772.00;6334135;28;20044;-77
2022/01/15 06:42:19;;;;;;;21.98;6.28;;;;;;;4.29;100.00;102766.81;6342119;28;20428;-79
2022/01/15 06:45:21;;;;;;;20.25;5.93;;;;;;;4.29;100.00;102768.53;6332211;28;20047;-79
2022/01/15 06:48:22;;;;;;;23.58;5.45;;;;;;;4.36;100.00;102769.44;6324084;28;20055;-79
2022/01/15 06:51:24;;;;;;;16.65;5.18;;;;;;;4.39;100.00;102766.84;6331581;28;20055;-80
2022/01/15 06:54:27;;;;;;;18.23;5.80;;;;;;;4.40;100.00;102763.38;6340996;28;20185;-80
2022/01/15 06:57:28;;;;;;;15.38;5.95;;;;;;;4.35;100.00;102770.31;6347575;28;20043;-79
2022/01/15 07:00:29;;;;;;;18.88;6.38;;;;;;;4.36;100.00;102772.94;6356465;27;20506;-80
2022/01/15 07:03:31;;;;;;;17.50;7.57;;;;;;;4.37;100.00;102771.19;6374707;27;20047;-80
2022/01/15 07:06:32;;;;;;;19.58;5.45;;;;;;;4.40;100.00;102765.97;6374969;27;20058;-79
2022/01/15 07:09:36;;;;;;;14.20;5.18;;;;;;;4.40;100.00;102777.25;6374272;27;20047;-80
2022/01/15 07:12:37;;;;;;;19.92;5.75;;;;;;;4.42;100.00;102774.69;6370229;27;20055;-80
2022/01/15 07:15:38;;;;;;;13.15;5.75;;;;;;;4.39;100.00;102765.13;6335293;28;20052;-79
2022/01/15 07:18:40;;;;;;;19.05;6.30;;;;;;;4.43;100.00;102768.63;6334763;28;20465;-79
2022/01/15 07:21:41;;;;;;;16.75;4.32;;;;;;;4.42;100.00;102772.97;6335739;28;20530;-80
2022/01/15 07:24:44;;;;;;;17.60;6.68;;;;;;;4.42;100.00;102759.94;6336036;28;20047;-80
2022/01/15 07:27:46;;;;;;;17.00;5.80;;;;;;;4.46;100.00;102766.91;6347648;28;20518;-79
2022/01/15 07:30:47;;;;;;;20.00;6.13;;;;;;;4.45;100.00;102767.78;6349851;28;20051;-80
2022/01/15 07:33:49;;;;;;;18.60;5.47;;;;;;;4.45;100.00;102767.78;6351468;28;20044;-77
2022/01/15 07:36:53;;;;;;;20.85;5.13;;;;;;;4.46;100.00;102769.50;6344780;28;20423;-79
2022/01/15 07:39:56;;;;;;;17.58;6.13;;;;;;;4.46;100.00;102764.31;6353578;28;20051;-79
2022/01/15 07:42:57;;;;;;;16.45;5.45;;;;;;;4.43;100.00;102755.59;6353453;28;20055;-78
2022/01/15 07:45:58;;;;;;;17.75;4.60;;;;;;;4.45;100.00;102756.47;6354086;28;20040;-78
2022/01/15 07:49:00;;;;;;;20.02;5.20;;;;;;;4.46;100.00;102753.88;6354715;28;20051;-77
2022/01/15 07:52:01;;;;;;;22.48;6.35;;;;;;;4.47;100.00;102754.75;6355238;28;20051;-77
2022/01/15 07:55:05;;;;;;;21.48;5.15;;;;;;;4.52;100.00;102759.09;6355087;28;20047;-77
2022/01/15 07:58:07;;;;;;;19.75;6.85;;;;;;;4.52;100.00;102760.84;6353988;28;20055;-78
2022/01/15 08:01:09;;;;;;;16.13;6.25;;;;;;;4.49;100.00;102755.63;6349271;28;20051;-76
2022/01/15 08:04:10;;;;;;;22.67;6.45;;;;;;;4.50;100.00;102754.78;6349396;28;20051;-77
2022/01/15 08:07:11;;;;;;;19.77;7.03;;;;;;;4.50;100.00;102758.25;6345051;28;20071;-77
2022/01/15 08:10:15;;;;;;;18.80;5.88;;;;;;;4.50;100.00;102758.25;6333874;28;20044;-77
2022/01/15 08:13:16;;;;;;;19.58;6.78;;;;;;;4.51;100.00;102759.97;6333660;28;20051;-77
2022/01/15 08:16:18;;;;;;;16.77;5.93;;;;;;;4.53;100.00;102763.44;6331508;28;20048;-77
2022/01/15 08:19:19;;;;;;;20.45;6.68;;;;;;;4.53;100.00;102758.25;6329863;28;20052;-78
2022/01/15 08:22:20;;;;;;;21.05;6.20;;;;;;;4.54;100.00;102752.19;6329090;28;20055;-77
2022/01/15 08:25:25;;;;;;;16.85;5.40;;;;;;;4.52;100.00;102753.91;6328683;28;20052;-77
2022/01/15 08:28:27;;;;;;;16.88;7.10;;;;;;;4.47;100.00;102768.63;6329479;28;20769;-78
2022/01/15 08:31:28;;;;;;;19.45;7.43;;;;;;;4.46;100.00;102763.44;6353557;28;20055;-77
2022/01/15 08:34:29;;;;;;;19.00;5.07;;;;;;;4.45;100.00;102766.88;6353738;27;20074;-78
2022/01/15 08:37:31;;;;;;;11.88;4.82;;;;;;;4.47;100.00;102760.81;6353584;28;20052;-78
2022/01/15 08:40:34;;;;;;;20.50;5.93;;;;;;;4.50;100.00;102759.97;6344874;28;20494;-78
2022/01/15 08:43:35;;;;;;;24.52;6.00;;;;;;;4.46;100.00;102758.22;6343426;28;20046;-78
2022/01/15 08:46:36;;;;;;;16.77;6.25;;;;;;;4.47;100.00;102753.00;6355116;28;20040;-78
2022/01/15 08:49:39;;;;;;;21.63;6.40;;;;;;;4.50;100.00;102765.19;6340838;28;20044;-78
2022/01/15 08:52:41;;;;;;;20.90;7.05;;;;;;;4.51;100.00;102759.13;6347892;28;20067;-78
2022/01/15 08:55:50;;;;;;;17.20;5.70;;;;;;;4.49;100.00;102766.03;6344408;28;20044;-79
2022/01/15 08:58:51;;;;;;;17.58;5.68;;;;;;;4.51;100.00;102757.38;6343449;28;20547;-77
2022/01/15 09:01:53;;;;;;;13.82;5.57;;;;;;;4.55;100.00;102758.25;6348446;28;20055;-77
2022/01/15 09:04:54;;;;;;;24.83;5.88;;;;;;;4.58;100.00;102761.72;6340415;27;20051;-78
2022/01/15 09:07:56;;;;;;;16.65;5.95;;;;;;;4.61;100.00;102762.63;6374259;27;20050;-78
2022/01/15 09:10:59;;;;;;;17.23;6.32;;;;;;;4.61;100.00;102755.66;6350250;27;20058;-77
2022/01/15 09:14:00;;;;;;;15.93;6.10;;;;;;;4.64;100.00;102753.09;6333348;28;20048;-77
2022/01/15 09:17:02;;;;;;;17.52;5.65;;;;;;;4.69;100.00;102756.56;6340293;28;20051;-79
2022/01/15 09:20:04;;;;;;;17.60;5.65;;;;;;;4.73;100.00;102758.31;6348871;28;20433;-78
2022/01/15 09:23:05;;;;;;;15.38;5.80;;;;;;;4.74;100.00;102759.19;6346759;28;20089;-78
2022/01/15 09:26:18;;;;;;;17.88;5.53;;;;;;;4.72;100.00;102753.97;6348040;28;20048;-78
2022/01/15 09:32:39;;;;;;;;;;;;;;;4.69;100.00;102758.31;6344090;28;20122;-79
2022/01/15 09:35:40;;;;;;;16.52;5.47;;;;;;;4.69;100.00;102753.97;6357650;28;19924;-77
2022/01/15 09:38:41;;;;;;;17.08;6.78;;;;;;;4.67;100.00;102749.59;6350651;28;20067;-77
2022/01/15 09:41:48;;;;;;;16.08;6.32;;;;;;;4.61;100.00;102733.97;6351887;28;20109;-77
2022/01/15 09:44:49;;;;;;;14.30;5.72;;;;;;;4.60;100.00;102738.31;6357527;28;20475;-77
2022/01/15 09:47:56;;;;;;;15.60;6.22;;;;;;;4.62;100.00;102738.31;6353534;28;20051;-77
2022/01/15 09:50:58;;;;;;;17.73;5.85;;;;;;;4.62;100.00;102731.38;6340074;28;20067;-77
2022/01/15 09:54:00;;;;;;;15.63;4.50;;;;;;;4.64;100.00;102737.47;6339691;28;20058;-79
2022/01/15 09:57:03;;;;;;;15.13;5.32;;;;;;;4.69;100.00;102737.47;6351710;28;20059;-77
2022/01/15 10:00:08;;;;;;;13.20;5.47;;;;;;;4.73;100.00;102734.03;6345332;28;20051;-77
2022/01/15 10:03:09;;;;;;;13.88;5.60;;;;;;;4.72;100.00;102734.88;6348286;28;20177;-77
2022/01/15 10:06:10;;;;;;;16.33;5.97;;;;;;;4.77;100.00;102727.97;6347047;28;20052;-77
2022/01/15 10:09:12;;;;;;;17.67;6.40;;;;;;;4.78;100.00;102714.06;6347288;28;20059;-77
2022/01/15 10:12:26;;;;;;;17.20;5.38;;;;;;;4.81;100.00;102717.56;6349378;28;20047;-77
2022/01/15 10:15:27;;;;;;;18.65;5.97;;;;;;;4.81;100.00;102711.44;6343291;27;20135;-77
2022/01/15 10:18:31;;;;;;;13.35;5.55;;;;;;;4.88;100.00;102723.63;6354772;27;20039;-76
2022/01/15 10:21:33;;;;;;;15.80;5.95;;;;;;;4.89;100.00;102719.28;6356162;27;20054;-74
2022/01/15 10:24:35;;;;;;;13.30;5.68;;;;;;;4.86;100.00;102709.75;6346010;27;20051;-75
2022/01/15 10:27:39;;;;;;;15.70;5.10;;;;;;;4.93;100.00;102716.69;6346287;27;20051;-77
2022/01/15 10:30:44;;;;;;;16.38;5.75;;;;;;;4.97;100.00;102710.63;6355117;27;20066;-77
2022/01/15 10:33:45;;;;;;;19.15;6.25;;;;;;;5.00;100.00;102704.56;6348621;28;20047;-77
2022/01/15 10:36:46;;;;;;;19.65;7.72;;;;;;;5.05;100.00;102698.47;6347833;28;20048;-77
2022/01/15 10:39:56;;;;;;;21.13;7.10;;;;;;;5.05;100.00;102708.03;6347302;28;20058;-77
2022/01/15 10:43:01;;;;;;;11.23;5.07;;;;;;;5.11;100.00;102702.81;6354164;28;20134;-77
2022/01/15 10:46:02;;;;;;;14.43;5.80;;;;;;;5.18;100.00;102704.56;6352944;28;20055;-78
2022/01/15 10:49:24;;;;;;;16.75;6.20;;;;;;;5.20;100.00;102696.75;6352715;28;20487;-77
2022/01/15 10:52:27;;;;;;;18.85;6.90;;;;;;;5.20;100.00;102686.31;6352605;28;20051;-78
2022/01/15 10:55:30;;;;;;;12.07;5.10;;;;;;;5.25;100.00;102693.25;6352989;28;20047;-79
2022/01/15 10:58:33;;;;;;;17.50;6.32;;;;;;;5.26;100.00;102688.91;6348016;28;20066;-79
2022/01/15 11:01:35;;;;;;;14.30;4.68;;;;;;;5.31;100.00;102684.56;6347988;28;20047;-79
2022/01/15 11:04:36;;;;;;;11.43;5.05;;;;;;;5.35;100.00;102684.56;6349068;28;20534;-79
2022/01/15 11:07:37;;;;;;;14.18;5.93;;;;;;;5.40;100.00;102686.31;6348743;28;20048;-79
2022/01/15 11:10:41;;;;;;;22.63;6.38;;;;;;;5.41;100.00;102681.09;6349514;28;20054;-80
2022/01/15 11:13:46;;;;;;;27.38;9.55;;;;;;;5.42;100.00;102676.75;6345617;28;20047;-81
2022/01/15 11:16:48;;;;;;;19.25;7.70;;;;;;;5.42;100.00;102669.81;6338351;28;20419;-80
2022/01/15 11:19:53;;;;;;;13.30;5.88;;;;;;;5.55;100.00;102671.53;6347685;27;20062;-78
2022/01/15 11:22:55;;;;;;;13.05;5.28;;;;;;;5.54;100.00;102671.50;6360426;27;20047;-78
2022/01/15 11:26:01;;;;;;;11.73;5.28;;;;;;;5.56;100.00;102661.97;6375325;28;20051;-78
2022/01/15 11:29:03;;;;;;;12.88;4.85;;;;;;;5.53;100.00;102665.44;6362213;28;20054;-79
2022/01/15 11:32:05;;;;;;;16.77;5.40;;;;;;;5.54;100.00;102664.59;6342383;28;20461;-77
2022/01/15 11:35:09;;;;;;;20.70;5.80;;;;;;;5.55;100.00;102653.28;6344160;28;20090;-78
2022/01/15 11:38:10;;;;;;;14.27;4.93;;;;;;;5.58;100.00;102653.25;6372742;27;20121;-79
2022/01/15 11:41:40;;;;;;;16.35;5.40;;;;;;;5.56;100.00;102646.31;6345876;28;20055;-78
2022/01/15 11:44:43;;;;;;;13.35;4.53;;;;;;;5.62;100.00;102637.59;6349196;28;20048;-77
2022/01/15 11:47:44;;;;;;;11.25;4.10;;;;;;;5.64;100.00;102636.75;6352936;28;20047;-78
2022/01/15 11:50:46;;;;;;;18.02;4.45;;;;;;;5.66;100.00;102640.19;6352520;28;20044;-78
2022/01/15 11:53:48;;;;;;;10.63;4.32;;;;;;;5.64;100.00;102631.53;6350875;28;20059;-78
2022/01/15 11:56:49;;;;;;;13.43;4.43;;;;;;;5.62;100.00;102617.59;6344157;28;20047;-79
2022/01/15 11:59:53;;;;;;;13.07;4.55;;;;;;;5.64;100.00;102623.69;6346081;28;20051;-80
2022/01/15 12:03:06;;;;;;;14.73;4.78;;;;;;;5.60;100.00;102621.97;6333811;28;20495;-79
2022/01/15 12:06:08;;;;;;;13.88;4.35;;;;;;;5.61;100.00;102613.25;6333733;28;20058;-79
2022/01/15 12:09:33;;;;;;;7.57;3.88;;;;;;;5.59;100.00;102615.03;6334347;28;20487;-77
2022/01/15 12:12:44;;;;;;;9.98;3.75;;;;;;;5.62;100.00;102620.22;6330823;28;20044;-78
2022/01/15 12:15:48;;;;;;;12.85;4.43;;;;;;;5.64;100.00;102610.66;6343168;28;20046;-79
2022/01/15 12:18:51;;;;;;;9.52;3.38;;;;;;;5.66;100.00;102608.91;6353833;28;20043;-78
2022/01/15 12:21:57;;;;;;;10.13;4.30;;;;;;;5.67;100.00;102610.63;6353672;28;20264;-79
2022/01/15 12:24:58;;;;;;;9.35;3.90;;;;;;;5.66;100.00;102613.25;6343891;28;20506;-78
2022/01/15 12:28:03;;;;;;;8.95;3.63;;;;;;;5.59;100.00;102605.47;6345067;28;20059;-79
2022/01/15 12:31:06;;;;;;;9.77;3.53;;;;;;;5.58;100.00;102601.09;6353585;28;20054;-78
2022/01/15 12:34:07;;;;;;;9.75;4.63;;;;;;;5.58;100.00;102601.09;6353515;28;20051;-80
2022/01/15 12:37:14;;;;;;;12.57;4.53;;;;;;;5.59;100.00;102597.63;6353605;28;20234;-78
2022/01/15 12:40:16;;;;;;;8.60;3.13;;;;;;;5.61;100.00;102589.78;6344924;28;20054;-80
2022/01/15 12:43:19;;;;;;;13.43;2.30;;;;;;;5.63;100.00;102589.78;6341745;28;20047;-73
2022/01/15 12:46:22;;;;;;;9.40;3.65;;;;;;;5.67;100.00;102583.69;6349469;28;20044;-78
2022/01/15 12:49:35;;;;;;;13.90;2.90;;;;;;;5.72;100.00;102579.31;6348789;27;20097;-78
2022/01/15 12:52:37;;;;;;;16.80;4.13;;;;;;;5.72;100.00;102577.59;6345259;27;20040;-79
2022/01/15 12:55:38;;;;;;;5.43;3.42;;;;;;;5.68;100.00;102580.19;6355677;27;20051;-79
2022/01/15 12:58:40;;;;;;;9.25;2.33;;;;;;;5.66;100.00;102569.78;6355830;27;20410;-80
2022/01/15 13:01:49;;;;;;;3.97;1.70;;;;;;;5.73;100.00;102568.03;6362339;27;20418;-79
2022/01/15 13:04:53;;;;;;;4.57;2.13;;;;;;;5.62;100.00;102565.44;6369726;27;20134;-78
2022/01/15 13:08:00;;;;;;;3.30;1.52;;;;;;;5.60;100.00;102555.03;6379798;27;20281;-77
2022/01/15 13:11:06;;;;;;;6.22;2.45;;;;;;;5.64;100.00;102560.25;6359431;27;20426;-70
2022/01/15 13:14:07;;;;;;;3.17;1.63;;;;;;;5.61;100.00;102555.88;6357245;27;20100;-77
2022/01/15 13:17:26;;;;;;;9.48;2.65;;;;;;;5.56;100.00;102550.69;6358320;27;20455;-72
2022/01/15 13:20:31;;;;;;;4.07;2.30;;;;;;;5.49;100.00;102550.72;6349557;27;20063;-78
2022/01/15 13:23:38;;;;;;;6.07;2.70;;;;;;;5.48;100.00;102547.22;6355261;27;20044;-78
2022/01/15 13:26:42;;;;;;;6.25;3.17;;;;;;;5.51;100.00;102547.22;6333827;28;20484;-78
2022/01/15 13:29:43;;;;;;;7.03;2.72;;;;;;;5.52;100.00;102543.75;6357096;28;20137;-79
2022/01/15 13:32:53;;;;;;;8.45;3.60;;;;;;;5.55;100.00;102538.53;6344366;27;20439;-78
2022/01/15 13:35:54;;;;;;;7.88;3.00;;;;;;;5.55;100.00;102532.44;6350783;28;20529;-68
2022/01/15 13:38:57;;;;;;;6.93;2.85;;;;;;;5.58;100.00;102530.66;6348714;28;20055;-70
2022/01/15 13:41:59;;;;;;;8.13;3.30;;;;;;;5.58;100.00;102522.00;6348803;28;20044;-73
2022/01/15 13:45:05;;;;;;;6.43;2.85;;;;;;;5.60;100.00;102518.50;6349312;28;20047;-77
2022/01/15 13:48:24;;;;;;;7.57;3.22;;;;;;;5.63;100.00;102514.16;6342227;28;20051;-77
2022/01/15 13:54:57;;;;;;;8.23;3.25;;;;;;;5.60;100.00;102515.03;6369913;27;20043;-79
2022/01/15 13:58:08;;;;;;;8.85;3.33;;;;;;;5.56;100.00;102508.97;6365371;27;20039;-74
2022/01/15 14:01:26;;;;;;;6.93;2.90;;;;;;;5.54;100.00;102507.22;6350425;28;20131;-80
2022/01/15 14:04:31;;;;;;;6.25;2.90;;;;;;;5.53;100.00;102513.31;6351812;28;20051;-80
2022/01/15 14:07:33;;;;;;;5.32;2.90;;;;;;;5.52;100.00;102502.03;6351067;28;20047;-81
2022/01/15 14:10:34;;;;;;;7.47;2.72;;;;;;;5.50;100.00;102497.72;6350838;28;20083;-81
2022/01/15 14:13:35;;;;;;;6.45;3.05;;;;;;;5.49;100.00;102498.56;6351939;28;20144;-81
2022/01/15 14:16:42;;;;;;;5.50;2.65;;;;;;;5.44;100.00;102492.50;6351096;27;20047;-81
2022/01/15 14:20:04;;;;;;;6.60;2.50;;;;;;;5.31;100.00;102483.84;6346053;27;20130;-77